Time;durP1;ratioP1;P1;durP2;ratioP2;P2;SDS_P1;SDS_P2;PMS_P1;PMS_P2;Temp;Humidity;BMP_temperature;BMP_pressure;BME280_temperature;BME280_humidity;BME280_pressure;Samples;Min_cycle;Max_cycle;Signal;HPM_P1;HPM_P2
2023/05/27 04:02:18;;;;;;;1.47;1.40;;;8.50;97.30;;;;;;5227827;23;21034;-78
2023/05/27 04:04:43;;;;;;;18.67;3.77;;;8.50;97.30;;;;;;4974842;28;20429;-82
2023/05/27 04:07:09;;;;;;;2.53;2.33;;;8.50;97.30;;;;;;4977106;28;20273;-84
2023/05/27 04:09:34;;;;;;;2.40;2.20;;;8.60;97.30;;;;;;4978586;28;20181;-84
2023/05/27 04:12:00;;;;;;;1.83;1.70;;;8.60;97.30;;;;;;4961801;28;20207;-86
2023/05/27 04:14:26;;;;;;;2.73;1.20;;;8.60;97.30;;;;;;4976152;28;20571;-85
2023/05/27 04:16:52;;;;;;;9.87;3.93;;;8.60;97.30;;;;;;4985665;28;20182;-81
2023/05/27 04:19:17;;;;;;;10.93;2.57;;;8.60;97.30;;;;;;5017454;23;20225;-88
2023/05/27 04:21:43;;;;;;;5.60;1.70;;;8.70;97.30;;;;;;4970097;28;20432;-88
2023/05/27 04:24:08;;;;;;;3.00;2.80;;;8.70;97.30;;;;;;4973104;28;20174;-89
2023/05/27 04:26:34;;;;;;;3.43;2.70;;;8.80;97.30;;;;;;4968290;28;20175;-91
2023/05/27 04:29:00;;;;;;;2.77;2.57;;;8.80;97.30;;;;;;4976528;28;20587;-88
2023/05/27 04:31:28;;;;;;;2.37;1.70;;;8.90;97.30;;;;;;4973042;28;20428;-88
2023/05/27 04:33:54;;;;;;;2.50;2.17;;;8.90;97.30;;;;;;4969021;28;20166;-89
2023/05/27 04:36:24;;;;;;;1.33;1.23;;;8.90;97.30;;;;;;4973593;28;20440;-88
2023/05/27 04:38:50;;;;;;;2.50;2.30;;;9.00;97.30;;;;;;4976674;28;20480;-90
2023/05/27 04:41:16;;;;;;;1.43;1.33;;;9.10;97.30;;;;;;4977195;28;20982;-89
2023/05/27 04:43:41;;;;;;;17.13;4.30;;;9.10;97.30;;;;;;4978075;28;20462;-91
2023/05/27 04:46:07;;;;;;;2.97;2.77;;;9.10;97.30;;;;;;4976224;28;20192;-88
2023/05/27 04:48:35;;;;;;;2.47;2.27;;;9.20;97.30;;;;;;4977642;28;20208;-90
2023/05/27 04:51:00;;;;;;;6.07;2.90;;;9.20;97.30;;;;;;4978681;28;20417;-90
2023/05/27 04:53:28;;;;;;;9.63;3.40;;;9.30;97.30;;;;;;4981753;28;20456;-88
2023/05/27 04:55:55;;;;;;;2.87;2.67;;;9.30;97.30;;;;;;4998934;28;20213;-91
2023/05/27 04:58:23;;;;;;;1.60;1.50;;;9.40;97.30;;;;;;5000426;28;20455;-89
2023/05/27 05:00:53;;;;;;;5.83;4.00;;;9.50;97.30;;;;;;4981521;28;20444;-91
2023/05/27 05:03:24;;;;;;;8.10;3.20;;;9.50;97.30;;;;;;4977288;28;20422;-88
2023/05/27 05:05:51;;;;;;;2.50;2.13;;;9.50;97.30;;;;;;4971232;28;20516;-88
2023/05/27 05:08:18;;;;;;;3.67;2.87;;;9.60;97.30;;;;;;4977872;28;20445;-89
2023/05/27 05:10:45;;;;;;;3.80;2.10;;;9.60;97.30;;;;;;4992183;28;20421;-87
2023/05/27 05:13:11;;;;;;;6.37;2.13;;;9.70;97.30;;;;;;4971768;28;20421;-88
2023/05/27 05:15:43;;;;;;;1.50;1.40;;;9.70;97.30;;;;;;4979710;28;20457;-92
2023/05/27 05:18:12;;;;;;;8.57;3.77;;;9.80;97.30;;;;;;4978395;28;20421;-91
2023/05/27 05:20:37;;;;;;;5.10;3.53;;;9.80;97.30;;;;;;4974916;28;20467;-90
2023/05/27 05:23:03;;;;;;;2.97;2.17;;;9.90;97.30;;;;;;4977934;28;20428;-92
2023/05/27 05:25:30;;;;;;;2.60;2.40;;;10.00;97.30;;;;;;4974315;28;20567;-89
2023/05/27 05:27:56;;;;;;;3.17;2.20;;;10.10;97.30;;;;;;4991422;28;20233;-89
2023/05/27 05:30:29;;;;;;;1.77;1.67;;;10.10;97.30;;;;;;4978195;28;20477;-89
2023/05/27 05:32:55;;;;;;;2.97;2.50;;;10.20;97.30;;;;;;4973938;28;20422;-91
2023/05/27 05:35:20;;;;;;;43.80;2.67;;;10.20;97.30;;;;;;4975381;28;20984;-91
2023/05/27 05:37:46;;;;;;;1.60;1.50;;;10.30;97.30;;;;;;4975962;28;20881;-91
2023/05/27 05:40:18;;;;;;;5.37;2.23;;;10.40;97.30;;;;;;4980793;28;20205;-91
2023/05/27 05:42:46;;;;;;;15.17;5.20;;;10.50;97.30;;;;;;4965183;28;20178;-90
2023/05/27 05:45:16;;;;;;;4.43;3.50;;;10.60;97.30;;;;;;4995754;28;20463;-90
2023/05/27 05:47:44;;;;;;;2.33;1.60;;;10.70;97.30;;;;;;4992203;28;20462;-90
2023/05/27 05:50:10;;;;;;;1.60;1.60;;;10.70;97.30;;;;;;4978213;28;20436;-90
2023/05/27 05:52:35;;;;;;;3.43;2.43;;;10.80;97.30;;;;;;4964353;28;20615;-90
2023/05/27 05:55:03;;;;;;;3.20;3.00;;;10.90;97.30;;;;;;4972684;28;20213;-90
2023/05/27 05:57:31;;;;;;;2.60;2.40;;;11.00;97.30;;;;;;4981165;28;20609;-88
2023/05/27 05:59:57;;;;;;;3.30;3.10;;;11.10;97.30;;;;;;4978804;28;20448;-91
2023/05/27 06:02:25;;;;;;;2.00;1.90;;;11.10;97.30;;;;;;4991749;28;20450;-90
2023/05/27 06:04:53;;;;;;;1.97;1.83;;;11.20;97.30;;;;;;4970968;28;20429;-89
2023/05/27 06:07:18;;;;;;;2.90;2.27;;;11.30;97.30;;;;;;4977612;28;20663;-92
2023/05/27 06:09:44;;;;;;;2.90;2.30;;;11.40;97.30;;;;;;4978989;28;20441;-89
2023/05/27 06:12:10;;;;;;;3.77;2.30;;;11.50;97.30;;;;;;4977955;28;20199;-91
2023/05/27 06:14:36;;;;;;;5.43;2.70;;;11.60;97.30;;;;;;4974937;28;21092;-89
2023/05/27 06:17:01;;;;;;;1.73;1.67;;;11.70;97.30;;;;;;4978411;28;20240;-89
2023/05/27 06:19:27;;;;;;;3.77;2.73;;;11.70;97.30;;;;;;4986410;28;20232;-91
2023/05/27 06:21:52;;;;;;;1.87;1.83;;;11.80;97.30;;;;;;4980359;28;20218;-88
2023/05/27 06:24:19;;;;;;;3.50;2.63;;;11.90;97.30;;;;;;4981428;28;20196;-89
2023/05/27 06:26:44;;;;;;;7.13;3.70;;;12.00;97.30;;;;;;4979333;28;20193;-91
2023/05/27 06:29:10;;;;;;;3.40;2.20;;;12.00;97.30;;;;;;4972906;28;20449;-91
2023/05/27 06:31:35;;;;;;;8.73;3.00;;;12.20;97.30;;;;;;4975064;28;20200;-91
2023/05/27 06:34:01;;;;;;;1.67;1.57;;;12.20;97.30;;;;;;4975517;28;20192;-92
2023/05/27 06:36:26;;;;;;;1.60;1.50;;;12.40;97.30;;;;;;4988295;28;20265;-90
2023/05/27 06:38:53;;;;;;;2.47;2.27;;;12.50;97.30;;;;;;4975362;28;20205;-89
2023/05/27 06:41:18;;;;;;;7.40;3.23;;;12.60;97.30;;;;;;4978989;28;20281;-90
2023/05/27 06:43:44;;;;;;;2.30;2.10;;;12.70;97.30;;;;;;4973836;28;20869;-91
2023/05/27 06:46:09;;;;;;;1.27;1.17;;;12.80;97.30;;;;;;4980495;28;20248;-89
2023/05/27 06:48:35;;;;;;;4.90;1.97;;;12.90;97.30;;;;;;4973853;28;20688;-89
2023/05/27 06:51:01;;;;;;;2.43;2.23;;;13.00;97.30;;;;;;4974687;28;20543;-89
2023/05/27 06:53:26;;;;;;;2.63;1.90;;;13.00;97.30;;;;;;4975064;28;20608;-91
2023/05/27 06:55:52;;;;;;;1.17;1.07;;;13.10;97.30;;;;;;4975033;28;20186;-90
2023/05/27 06:58:17;;;;;;;1.57;1.47;;;13.20;97.30;;;;;;4974907;28;20300;-90
2023/05/27 07:00:43;;;;;;;2.67;2.30;;;13.20;97.30;;;;;;4982163;28;20205;-88
2023/05/27 07:03:09;;;;;;;5.87;3.03;;;13.30;96.90;;;;;;4974324;28;20284;-90
2023/05/27 07:05:34;;;;;;;1.97;1.87;;;13.40;95.80;;;;;;4978801;28;20220;-91
2023/05/27 07:08:00;;;;;;;4.53;2.40;;;13.40;95.90;;;;;;4977929;28;20838;-89
2023/05/27 07:10:25;;;;;;;7.17;2.13;;;13.50;96.90;;;;;;4984397;28;20225;-91
2023/05/27 07:12:51;;;;;;;5.17;3.30;;;13.50;96.40;;;;;;4993180;28;20185;-90
2023/05/27 07:15:16;;;;;;;1.50;1.50;;;13.60;95.60;;;;;;4978622;28;20185;-89
2023/05/27 07:17:45;;;;;;;4.63;2.50;;;13.70;95.20;;;;;;4981696;28;20188;-91
2023/05/27 07:20:11;;;;;;;1.73;1.40;;;13.80;95.30;;;;;;4979473;28;20307;-91
2023/05/27 07:23:04;;;;;;;12.93;1.70;;;13.80;94.60;;;;;;4971667;28;20434;-90
2023/05/27 07:25:30;;;;;;;9.60;3.50;;;13.90;94.40;;;;;;4991130;28;20436;-92
2023/05/27 07:27:55;;;;;;;3.00;1.77;;;13.90;94.30;;;;;;4979606;28;20457;-90
2023/05/27 07:30:21;;;;;;;6.23;2.63;;;14.00;94.20;;;;;;4975734;28;20190;-90
2023/05/27 07:32:46;;;;;;;1.60;1.50;;;14.00;94.00;;;;;;4977204;28;20178;-90
2023/05/27 07:35:12;;;;;;;2.03;1.90;;;14.10;94.20;;;;;;4974493;28;20407;-92
2023/05/27 07:37:37;;;;;;;2.13;2.03;;;14.20;94.40;;;;;;4991614;28;20543;-93
2023/05/27 07:40:04;;;;;;;24.77;2.60;;;14.30;95.00;;;;;;4984340;28;20212;-92
2023/05/27 07:42:29;;;;;;;6.97;1.30;;;14.40;93.90;;;;;;4985749;28;20557;-91
2023/05/27 07:44:55;;;;;;;2.50;1.53;;;14.50;94.50;;;;;;4977511;28;20409;-90
2023/05/27 07:47:20;;;;;;;2.53;1.67;;;14.60;94.50;;;;;;4973678;28;20202;-88
2023/05/27 07:49:46;;;;;;;2.80;1.83;;;14.70;94.40;;;;;;4971218;28;20273;-87
2023/05/27 07:52:12;;;;;;;1.30;1.20;;;14.80;93.70;;;;;;4987785;28;20681;-88
2023/05/27 07:54:37;;;;;;;2.20;1.80;;;14.90;93.70;;;;;;4974215;28;21481;-89
2023/05/27 07:57:04;;;;;;;5.67;2.30;;;15.00;93.80;;;;;;4972918;28;20206;-88
2023/05/27 07:59:29;;;;;;;15.30;3.10;;;15.00;93.40;;;;;;4992157;28;20252;-90
2023/05/27 08:01:55;;;;;;;6.30;2.90;;;15.10;93.40;;;;;;4988759;28;20428;-86
2023/05/27 08:04:20;;;;;;;2.20;2.03;;;15.10;92.10;;;;;;4971154;28;20301;-89
2023/05/27 08:06:46;;;;;;;10.87;2.60;;;15.10;92.80;;;;;;4976970;28;20185;-88
2023/05/27 08:09:11;;;;;;;5.30;2.30;;;15.00;92.30;;;;;;4971459;28;20312;-90
2023/05/27 08:11:37;;;;;;;4.00;2.20;;;15.00;92.80;;;;;;4972928;28;20190;-89
2023/05/27 08:14:02;;;;;;;9.07;1.90;;;15.00;92.60;;;;;;4964702;28;20281;-88
2023/05/27 08:16:28;;;;;;;8.23;3.67;;;15.00;91.60;;;;;;4983338;28;20182;-88
2023/05/27 08:18:53;;;;;;;1.80;1.50;;;14.90;91.60;;;;;;4978150;28;20225;-90
2023/05/27 08:21:19;;;;;;;1.47;1.40;;;14.90;92.00;;;;;;4967161;28;20217;-89
2023/05/27 08:23:44;;;;;;;2.67;1.73;;;14.90;92.00;;;;;;4966726;28;20177;-87
2023/05/27 08:26:11;;;;;;;1.63;1.57;;;14.90;91.90;;;;;;4972735;28;20195;-87
2023/05/27 08:28:36;;;;;;;2.67;1.93;;;14.90;91.50;;;;;;4978164;28;20582;-87
2023/05/27 08:31:03;;;;;;;1.70;1.60;;;15.00;90.60;;;;;;4971246;28;20425;-90
2023/05/27 08:33:29;;;;;;;1.00;0.90;;;15.10;90.10;;;;;;4974727;28;20185;-88
2023/05/27 08:35:56;;;;;;;1.73;1.63;;;15.20;89.60;;;;;;4969331;28;20783;-88
2023/05/27 08:38:21;;;;;;;6.80;2.40;;;15.30;89.70;;;;;;4973327;28;20186;-87
2023/05/27 08:40:48;;;;;;;1.20;1.10;;;15.40;90.40;;;;;;4975734;28;20803;-87
2023/05/27 08:43:14;;;;;;;1.43;1.33;;;15.50;90.60;;;;;;4973188;28;20189;-88
2023/05/27 08:45:40;;;;;;;1.93;1.87;;;15.60;89.70;;;;;;4971568;28;20474;-89
2023/05/27 08:48:08;;;;;;;7.47;3.17;;;15.70;89.70;;;;;;4991780;28;20547;-90
2023/05/27 08:50:34;;;;;;;9.83;2.13;;;15.90;88.80;;;;;;4972229;28;20449;-88
2023/05/27 08:53:02;;;;;;;1.97;1.60;;;16.00;89.00;;;;;;4974266;28;20468;-87
2023/05/27 08:55:29;;;;;;;17.13;3.07;;;16.10;88.60;;;;;;4972979;28;20356;-88
2023/05/27 08:57:56;;;;;;;3.43;2.20;;;16.20;89.40;;;;;;4966629;28;20501;-86
2023/05/27 09:00:22;;;;;;;6.13;2.57;;;16.40;88.30;;;;;;4991165;28;20460;-89
2023/05/27 09:02:47;;;;;;;2.70;1.93;;;16.50;87.70;;;;;;4964881;28;20430;-89
2023/05/27 09:05:15;;;;;;;3.57;1.93;;;16.50;86.80;;;;;;4974566;28;20413;-87
2023/05/27 09:07:41;;;;;;;2.60;2.47;;;16.50;86.40;;;;;;4993333;28;20273;-89
2023/05/27 09:10:07;;;;;;;12.33;1.73;;;16.50;86.40;;;;;;4978850;28;21138;-87
2023/05/27 09:12:34;;;;;;;1.87;1.20;;;16.50;85.40;;;;;;4991055;28;20233;-90
2023/05/27 09:15:00;;;;;;;5.43;1.67;;;16.40;85.40;;;;;;5016111;28;20409;-91
2023/05/27 09:17:26;;;;;;;1.77;1.70;;;16.50;85.40;;;;;;4990582;28;20421;-90
2023/05/27 09:19:55;;;;;;;1.40;1.40;;;16.50;85.40;;;;;;4995361;28;20476;-88
2023/05/27 09:22:22;;;;;;;1.67;1.57;;;16.50;86.50;;;;;;4977691;28;20537;-87
2023/05/27 09:24:47;;;;;;;7.43;2.10;;;16.50;85.70;;;;;;4982566;28;20429;-88
2023/05/27 09:27:13;;;;;;;1.20;1.10;;;16.50;84.50;;;;;;4980443;28;20842;-88
2023/05/27 09:29:43;;;;;;;4.90;2.80;;;16.60;85.10;;;;;;4971384;28;20209;-87
2023/05/27 09:32:09;;;;;;;1.23;1.23;;;16.70;85.30;;;;;;4973218;28;20265;-88
2023/05/27 09:34:41;;;;;;;1.33;1.00;;;16.80;85.20;;;;;;4973776;28;20681;-89
2023/05/27 09:37:20;;;;;;;3.03;1.63;;;16.90;85.80;;;;;;4976754;28;20628;-89
2023/05/27 09:39:46;;;;;;;1.50;1.50;;;17.00;84.80;;;;;;4972207;28;20527;-87
2023/05/27 09:42:13;;;;;;;1.53;1.43;;;17.10;85.10;;;;;;4976563;28;20500;-90
2023/05/27 09:44:42;;;;;;;2.47;2.27;;;17.20;84.20;;;;;;4979293;28;20424;-89
2023/05/27 09:47:11;;;;;;;2.80;2.60;;;17.20;83.80;;;;;;4977005;28;20962;-90
2023/05/27 09:49:37;;;;;;;2.00;1.70;;;17.20;84.10;;;;;;4980017;28;20448;-91
2023/05/27 09:52:05;;;;;;;2.87;2.03;;;17.30;84.00;;;;;;4979350;28;20420;-90
2023/05/27 09:54:37;;;;;;;8.70;3.10;;;17.40;85.00;;;;;;4966556;28;20838;-89
2023/05/27 09:57:16;;;;;;;1.77;1.77;;;17.50;84.90;;;;;;4980713;28;20413;-90
2023/05/27 09:59:46;;;;;;;2.00;1.90;;;17.60;84.50;;;;;;4974683;28;20444;-89
2023/05/27 10:02:28;;;;;;;9.70;2.57;;;17.70;83.60;;;;;;4974427;28;20417;-91
2023/05/27 10:04:58;;;;;;;4.13;2.63;;;17.80;85.40;;;;;;4976265;28;20423;-92
2023/05/27 10:07:26;;;;;;;2.70;2.43;;;17.90;84.50;;;;;;4970597;28;20449;-91
2023/05/27 10:09:59;;;;;;;8.33;3.50;;;18.00;83.50;;;;;;4979833;28;20436;-89
2023/05/27 10:12:28;;;;;;;3.43;1.87;;;18.10;84.40;;;;;;4965952;28;20866;-91
2023/05/27 10:14:56;;;;;;;2.13;1.40;;;18.20;83.20;;;;;;4974902;28;20465;-90
2023/05/27 10:17:39;;;;;;;3.27;2.20;;;18.20;83.40;;;;;;4968577;28;20477;-91
2023/05/27 10:20:07;;;;;;;3.43;3.23;;;18.30;82.00;;;;;;4976486;23;20932;-65
2023/05/27 10:22:42;;;;;;;1.63;1.53;;;18.20;82.30;;;;;;4948170;28;20943;-65
2023/05/27 10:25:14;;;;;;;3.60;2.30;;;18.20;81.50;;;;;;4948148;28;20426;-65
2023/05/27 10:27:45;;;;;;;3.53;1.60;;;18.30;82.00;;;;;;4938836;28;21017;-65
2023/05/27 10:30:15;;;;;;;1.63;1.53;;;18.30;82.00;;;;;;4940817;28;20428;-63
2023/05/27 10:32:50;;;;;;;2.90;1.70;;;18.30;81.10;;;;;;4941426;28;20426;-65
2023/05/27 10:35:18;;;;;;;2.00;1.77;;;18.30;80.50;;;;;;4952230;28;20437;-65
2023/05/27 10:37:45;;;;;;;1.40;1.20;;;18.40;81.10;;;;;;4956079;28;20884;-65
2023/05/27 10:40:11;;;;;;;6.50;1.63;;;18.50;81.30;;;;;;4957799;28;20450;-66
2023/05/27 10:42:40;;;;;;;2.40;1.83;;;18.70;82.00;;;;;;4955164;28;20452;-66
2023/05/27 10:45:14;;;;;;;2.70;2.00;;;18.80;80.40;;;;;;4958579;28;20456;-67
2023/05/27 10:47:45;;;;;;;1.47;1.40;;;18.80;80.70;;;;;;4953418;28;20274;-67
2023/05/27 10:50:14;;;;;;;2.90;1.67;;;18.80;82.60;;;;;;4949719;28;20514;-66
2023/05/27 10:52:41;;;;;;;2.57;1.40;;;18.90;83.10;;;;;;4952280;28;20978;-66
2023/05/27 10:55:07;;;;;;;6.27;1.40;;;19.00;81.70;;;;;;4951776;28;20493;-66
2023/05/27 10:57:33;;;;;;;1.70;1.00;;;19.00;80.80;;;;;;4954429;28;20442;-66
2023/05/27 11:00:08;;;;;;;2.77;1.90;;;19.10;82.20;;;;;;4949421;28;20423;-65
2023/05/27 11:02:37;;;;;;;4.83;1.87;;;19.30;82.80;;;;;;4956275;28;20520;-65
2023/05/27 11:05:11;;;;;;;2.40;1.67;;;19.40;80.30;;;;;;4948806;28;20485;-66
2023/05/27 11:07:38;;;;;;;2.23;1.97;;;19.40;79.50;;;;;;4953635;28;20974;-65
2023/05/27 11:10:06;;;;;;;4.00;2.50;;;19.40;79.90;;;;;;4951424;28;20449;-65
2023/05/27 11:12:32;;;;;;;3.60;2.10;;;19.40;80.20;;;;;;4954160;28;20414;-64
2023/05/27 11:15:01;;;;;;;3.20;2.50;;;19.40;81.30;;;;;;4951682;28;20808;-66
2023/05/27 11:17:26;;;;;;;2.63;2.43;;;19.50;78.90;;;;;;4947398;28;20180;-65
2023/05/27 11:19:53;;;;;;;3.10;2.10;;;19.50;78.60;;;;;;4954975;28;20468;-64
2023/05/27 11:22:20;;;;;;;1.27;1.20;;;19.50;78.00;;;;;;4959353;28;20221;-65
2023/05/27 11:25:02;;;;;;;3.37;3.20;;;19.50;77.10;;;;;;4948793;28;20430;-64
2023/05/27 11:27:38;;;;;;;1.63;1.53;;;19.50;78.90;;;;;;4948420;28;20478;-64
2023/05/27 11:30:11;;;;;;;3.43;1.73;;;19.50;78.60;;;;;;4939838;28;20443;-63
2023/05/27 11:32:38;;;;;;;1.63;1.07;;;19.60;80.60;;;;;;4942319;28;20486;-63
2023/05/27 11:35:05;;;;;;;5.03;1.57;;;19.70;79.50;;;;;;4942807;28;20423;-63
2023/05/27 11:37:34;;;;;;;6.63;2.40;;;19.80;79.60;;;;;;4954822;28;20858;-63
2023/05/27 11:40:00;;;;;;;6.00;2.20;;;19.90;80.90;;;;;;4953275;28;20430;-64
2023/05/27 11:42:29;;;;;;;1.93;1.90;;;20.10;80.60;;;;;;4948483;28;20482;-64
2023/05/27 11:44:56;;;;;;;1.70;1.53;;;20.10;77.60;;;;;;4951869;28;20606;-64
2023/05/27 11:47:22;;;;;;;11.23;1.80;;;20.20;78.30;;;;;;4939869;28;20562;-65
2023/05/27 11:49:50;;;;;;;1.47;1.37;;;20.30;80.00;;;;;;4941671;28;20514;-65
2023/05/27 11:52:17;;;;;;;3.83;1.83;;;20.50;79.90;;;;;;4944097;28;20438;-62
2023/05/27 11:54:42;;;;;;;5.23;1.60;;;20.70;78.70;;;;;;4948928;28;20529;-62
2023/05/27 11:57:10;;;;;;;4.03;1.70;;;20.80;79.20;;;;;;4951729;28;20658;-62
2023/05/27 11:59:36;;;;;;;9.07;2.63;;;20.90;75.90;;;;;;4940408;28;20789;-63
2023/05/27 12:02:03;;;;;;;1.97;1.50;;;21.00;76.60;;;;;;4950690;28;20501;-65
2023/05/27 12:04:29;;;;;;;3.20;1.90;;;21.00;76.40;;;;;;4948101;28;20222;-63
2023/05/27 12:06:57;;;;;;;5.73;2.73;;;21.10;77.10;;;;;;4942921;28;20879;-64
2023/05/27 12:09:23;;;;;;;2.07;1.93;;;21.10;76.00;;;;;;4955796;28;20501;-63
2023/05/27 12:11:49;;;;;;;1.40;1.33;;;21.10;76.80;;;;;;4947399;28;20550;-64
2023/05/27 12:14:14;;;;;;;3.83;1.97;;;21.20;76.70;;;;;;4952185;28;20209;-63
2023/05/27 12:16:40;;;;;;;4.00;2.00;;;21.30;77.40;;;;;;4943923;28;20265;-62
2023/05/27 12:19:06;;;;;;;2.10;2.00;;;21.30;76.60;;;;;;4951314;28;20187;-64
2023/05/27 12:21:36;;;;;;;4.07;1.70;;;21.40;76.40;;;;;;4950357;28;20246;-63
2023/05/27 12:24:02;;;;;;;6.43;2.63;;;21.50;75.30;;;;;;4947684;28;20187;-64
2023/05/27 12:26:27;;;;;;;2.80;2.20;;;21.40;74.60;;;;;;4948826;28;20415;-64
2023/05/27 12:28:53;;;;;;;1.83;1.70;;;21.30;74.40;;;;;;4944209;28;20231;-64
2023/05/27 12:31:18;;;;;;;2.53;1.73;;;21.30;73.80;;;;;;4951277;28;20211;-64
2023/05/27 12:33:44;;;;;;;1.43;1.40;;;21.30;74.80;;;;;;4950134;28;20798;-64
2023/05/27 12:36:11;;;;;;;4.70;1.70;;;21.30;75.70;;;;;;4952030;28;20190;-64
2023/05/27 12:38:36;;;;;;;7.40;1.83;;;21.40;75.40;;;;;;4952477;28;20221;-64
2023/05/27 12:41:03;;;;;;;2.93;1.73;;;21.60;74.00;;;;;;4951721;28;20470;-64
2023/05/27 12:43:28;;;;;;;2.90;1.83;;;21.60;74.60;;;;;;4951550;28;20179;-64
2023/05/27 12:45:54;;;;;;;3.10;2.37;;;21.70;75.40;;;;;;4952061;28;20426;-64
2023/05/27 12:48:20;;;;;;;2.53;1.60;;;21.90;75.00;;;;;;4947493;28;20675;-64
2023/05/27 12:50:46;;;;;;;1.80;1.77;;;22.00;74.70;;;;;;4951270;28;20570;-64
2023/05/27 12:53:12;;;;;;;2.43;1.90;;;22.10;73.70;;;;;;4948432;28;20934;-65
2023/05/27 12:55:38;;;;;;;1.40;1.30;;;22.20;75.60;;;;;;4951039;28;20183;-64
2023/05/27 12:58:04;;;;;;;3.63;1.97;;;22.40;74.80;;;;;;4950973;28;20183;-66
2023/05/27 13:00:31;;;;;;;1.33;1.10;;;22.50;73.80;;;;;;4954335;28;20993;-65
2023/05/27 13:02:56;;;;;;;1.53;1.43;;;22.50;72.40;;;;;;4966725;28;20432;-63
2023/05/27 13:05:22;;;;;;;1.53;1.37;;;22.50;76.50;;;;;;4949381;28;20427;-65
2023/05/27 13:07:57;;;;;;;2.27;1.60;;;22.70;74.50;;;;;;4946548;28;20209;-64
2023/05/27 13:10:23;;;;;;;3.00;1.70;;;22.80;72.80;;;;;;4954775;28;20180;-65
2023/05/27 13:12:49;;;;;;;2.13;1.90;;;22.80;73.50;;;;;;4942332;28;20411;-65
2023/05/27 13:15:16;;;;;;;2.30;1.73;;;22.90;74.10;;;;;;4946146;28;20441;-65
2023/05/27 13:17:42;;;;;;;2.97;1.33;;;23.00;72.40;;;;;;4948762;28;20186;-64
2023/05/27 13:20:09;;;;;;;1.90;1.60;;;23.20;72.80;;;;;;4953295;28;20968;-64
2023/05/27 13:22:34;;;;;;;1.63;1.60;;;23.30;70.50;;;;;;4944988;28;20415;-64
2023/05/27 13:25:00;;;;;;;8.00;2.80;;;23.20;70.20;;;;;;4947473;28;20418;-65
2023/05/27 13:27:26;;;;;;;4.87;1.87;;;23.10;71.00;;;;;;4946719;28;20211;-65
2023/05/27 13:29:52;;;;;;;4.20;1.60;;;23.00;72.30;;;;;;4946494;28;20831;-64
2023/05/27 13:32:18;;;;;;;1.40;1.40;;;23.00;72.90;;;;;;4950799;28;20276;-64
2023/05/27 13:34:43;;;;;;;4.40;1.97;;;23.10;72.00;;;;;;4955988;28;20753;-64
2023/05/27 13:37:09;;;;;;;1.80;1.23;;;23.20;71.20;;;;;;4951296;28;20682;-64
2023/05/27 13:39:34;;;;;;;6.33;1.60;;;23.30;70.70;;;;;;4960493;28;20174;-65
2023/05/27 13:42:00;;;;;;;2.60;1.70;;;23.30;71.10;;;;;;4953076;28;20643;-66
2023/05/27 13:44:26;;;;;;;2.73;2.53;;;23.20;70.70;;;;;;4955424;28;20561;-65
2023/05/27 13:46:51;;;;;;;1.33;1.27;;;23.10;70.10;;;;;;4953090;28;20272;-64
2023/05/27 13:49:17;;;;;;;3.80;1.23;;;23.10;71.30;;;;;;4957930;28;21064;-64
2023/05/27 13:51:44;;;;;;;1.80;1.30;;;23.30;72.00;;;;;;4958917;28;20190;-65
2023/05/27 13:54:10;;;;;;;2.40;1.50;;;23.40;72.70;;;;;;4961566;28;20214;-66
2023/05/27 13:56:36;;;;;;;1.93;1.83;;;23.50;71.50;;;;;;4955548;28;20430;-64
2023/05/27 13:59:03;;;;;;;1.63;1.53;;;23.70;70.70;;;;;;4957667;28;20441;-65
2023/05/27 14:01:31;;;;;;;1.27;1.27;;;23.70;71.50;;;;;;4957203;28;20703;-66
2023/05/27 14:03:58;;;;;;;2.03;1.90;;;23.90;71.10;;;;;;4961206;28;20461;-67
2023/05/27 14:06:24;;;;;;;2.23;1.50;;;23.90;69.40;;;;;;4960894;28;20431;-66
2023/05/27 14:08:50;;;;;;;2.13;1.87;;;23.90;70.20;;;;;;4961938;28;20466;-65
2023/05/27 14:11:15;;;;;;;4.97;2.43;;;23.90;70.30;;;;;;4962140;28;20658;-64
2023/05/27 14:13:41;;;;;;;3.50;2.93;;;24.00;69.60;;;;;;4963693;28;20193;-64
2023/05/27 14:16:07;;;;;;;1.63;1.20;;;24.20;69.90;;;;;;4958722;28;20281;-63
2023/05/27 14:18:33;;;;;;;1.80;1.70;;;24.30;69.90;;;;;;4962643;28;20281;-65
2023/05/27 14:20:59;;;;;;;3.93;1.17;;;24.40;70.00;;;;;;4964647;28;20226;-66
2023/05/27 14:23:25;;;;;;;1.93;1.30;;;24.50;69.00;;;;;;4963954;28;20480;-65
2023/05/27 14:25:50;;;;;;;7.93;1.73;;;24.40;68.10;;;;;;4964311;28;20738;-65
2023/05/27 14:28:16;;;;;;;2.73;1.63;;;24.30;68.70;;;;;;4961836;28;20278;-65
2023/05/27 14:30:41;;;;;;;1.47;1.37;;;24.30;68.70;;;;;;4960875;28;20217;-65
2023/05/27 14:33:08;;;;;;;2.17;2.00;;;24.20;68.00;;;;;;4963925;28;20183;-65
2023/05/27 14:35:35;;;;;;;1.60;1.50;;;24.20;67.80;;;;;;4961920;28;20179;-65
2023/05/27 14:38:02;;;;;;;2.20;1.37;;;24.10;68.20;;;;;;4957097;28;20432;-65
2023/05/27 14:40:27;;;;;;;2.63;1.50;;;24.10;68.50;;;;;;4956285;28;20455;-65
2023/05/27 14:42:53;;;;;;;1.47;1.37;;;24.00;67.40;;;;;;4960761;28;20433;-65
2023/05/27 14:45:20;;;;;;;12.10;2.87;;;24.00;68.10;;;;;;4957385;28;20194;-65
2023/05/27 14:47:46;;;;;;;2.20;2.07;;;23.90;67.30;;;;;;4957099;28;20663;-66
2023/05/27 14:50:12;;;;;;;4.53;1.57;;;23.90;67.70;;;;;;4956954;28;20509;-66
2023/05/27 14:52:37;;;;;;;3.70;1.77;;;23.90;67.10;;;;;;4958718;28;20667;-64
2023/05/27 14:55:05;;;;;;;7.20;3.17;;;24.00;69.10;;;;;;4961403;28;20189;-65
2023/05/27 14:57:34;;;;;;;4.53;1.33;;;24.20;70.50;;;;;;4960019;28;20190;-64
2023/05/27 15:00:08;;;;;;;1.53;1.43;;;24.60;67.70;;;;;;4958130;28;20512;-65
2023/05/27 15:02:34;;;;;;;1.53;1.20;;;24.80;67.00;;;;;;4962530;28;20425;-66
2023/05/27 15:05:03;;;;;;;3.50;1.63;;;24.80;66.40;;;;;;4963786;28;20422;-65
2023/05/27 15:07:29;;;;;;;7.63;2.53;;;24.80;66.70;;;;;;4951689;28;20585;-66
2023/05/27 15:09:55;;;;;;;2.40;2.00;;;24.80;67.10;;;;;;4960887;28;20461;-65
2023/05/27 15:12:20;;;;;;;1.80;1.70;;;24.70;65.60;;;;;;4958770;28;20206;-64
2023/05/27 15:14:46;;;;;;;4.10;2.03;;;24.60;66.50;;;;;;4962437;28;20241;-64
2023/05/27 15:17:12;;;;;;;2.13;1.53;;;24.70;67.70;;;;;;4955297;28;20214;-64
2023/05/27 15:19:38;;;;;;;7.00;1.17;;;24.90;67.70;;;;;;4953056;28;20668;-65
2023/05/27 15:22:04;;;;;;;2.37;1.30;;;25.10;65.30;;;;;;4960785;28;20289;-64
2023/05/27 15:24:30;;;;;;;1.90;1.73;;;25.10;66.20;;;;;;4964016;28;20430;-64
2023/05/27 15:26:55;;;;;;;1.30;1.20;;;25.10;67.00;;;;;;4958827;28;20433;-65
2023/05/27 15:29:21;;;;;;;4.20;1.97;;;25.20;67.10;;;;;;4954013;28;21149;-64
2023/05/27 15:31:47;;;;;;;1.33;1.30;;;25.30;64.40;;;;;;4961607;28;20253;-64
2023/05/27 15:34:13;;;;;;;5.70;1.57;;;25.20;65.30;;;;;;4944890;28;20660;-64
2023/05/27 15:36:39;;;;;;;3.30;1.47;;;25.20;64.30;;;;;;4950558;28;20435;-64
2023/05/27 15:39:06;;;;;;;3.13;1.67;;;24.90;64.00;;;;;;4952048;28;20191;-64
2023/05/27 15:41:32;;;;;;;3.17;1.50;;;24.70;66.20;;;;;;4956540;28;20583;-63
2023/05/27 15:43:57;;;;;;;1.37;1.23;;;24.60;65.80;;;;;;4964407;28;20430;-64
2023/05/27 15:46:24;;;;;;;1.13;1.03;;;24.70;65.60;;;;;;4957769;28;20434;-64
2023/05/27 15:48:49;;;;;;;2.30;1.67;;;24.70;65.30;;;;;;4962282;28;20222;-64
2023/05/27 15:51:15;;;;;;;2.33;1.40;;;24.90;66.30;;;;;;4961894;28;20449;-65
2023/05/27 15:53:40;;;;;;;2.63;1.30;;;25.00;65.30;;;;;;4960286;28;20554;-65
2023/05/27 15:56:06;;;;;;;1.40;1.30;;;25.10;63.90;;;;;;4954828;28;20259;-64
2023/05/27 15:58:32;;;;;;;2.10;1.40;;;25.20;65.30;;;;;;4959930;28;20187;-64
2023/05/27 16:00:57;;;;;;;4.20;1.47;;;25.20;65.40;;;;;;4965899;28;20898;-64
2023/05/27 16:03:23;;;;;;;1.50;1.40;;;25.30;63.60;;;;;;4959730;28;20215;-64
2023/05/27 16:05:49;;;;;;;0.90;0.80;;;25.30;64.00;;;;;;4960157;28;20768;-64
2023/05/27 16:08:14;;;;;;;1.80;1.70;;;25.20;63.90;;;;;;4958228;28;20916;-64
2023/05/27 16:10:51;;;;;;;1.43;1.30;;;25.20;63.90;;;;;;4963021;28;20202;-65
2023/05/27 16:13:17;;;;;;;4.73;2.03;;;25.20;64.10;;;;;;4963764;28;20548;-64
2023/05/27 16:15:43;;;;;;;1.73;1.10;;;25.20;65.30;;;;;;4967131;28;20418;-64
2023/05/27 16:18:08;;;;;;;11.33;2.30;;;25.30;64.00;;;;;;4965389;28;20429;-65
2023/05/27 16:20:34;;;;;;;1.40;1.13;;;25.30;65.10;;;;;;4964610;28;20231;-65
2023/05/27 16:23:00;;;;;;;1.23;1.20;;;25.30;63.60;;;;;;4967381;28;20635;-64
2023/05/27 16:25:25;;;;;;;1.30;1.20;;;25.30;64.80;;;;;;4964674;28;20237;-64
2023/05/27 16:27:51;;;;;;;1.47;1.43;;;25.40;64.60;;;;;;4969570;28;20220;-65
2023/05/27 16:30:16;;;;;;;1.53;1.33;;;25.50;63.70;;;;;;4960807;28;20636;-65
2023/05/27 16:32:42;;;;;;;2.73;1.80;;;25.40;62.60;;;;;;4967499;28;20194;-65
2023/05/27 16:35:08;;;;;;;6.30;1.50;;;25.20;62.30;;;;;;4961823;28;20186;-64
2023/05/27 16:37:33;;;;;;;3.13;1.30;;;25.00;64.40;;;;;;4964647;28;20191;-65
2023/05/27 16:39:59;;;;;;;1.13;1.07;;;25.10;65.10;;;;;;4955262;28;20414;-65
2023/05/27 16:42:24;;;;;;;2.90;1.90;;;25.20;65.40;;;;;;4966766;28;20570;-65
2023/05/27 16:44:50;;;;;;;2.53;1.63;;;25.30;65.60;;;;;;4964535;28;20603;-64
2023/05/27 16:47:16;;;;;;;1.30;1.20;;;25.30;63.60;;;;;;4967457;28;20340;-64